createdAt,value
2022-09-29T00:01:44.486Z,99376.00
2022-09-29T00:06:46.143Z,99373.41
2022-09-29T00:11:47.873Z,99377.72
2022-09-29T00:16:49.808Z,99376.00
2022-09-29T00:21:51.481Z,99368.22
2022-09-29T00:26:53.480Z,99376.88
2022-09-29T00:31:55.182Z,99372.56
2022-09-29T00:36:56.858Z,99372.53
2022-09-29T00:41:58.541Z,99366.50
2022-09-29T00:47:03.300Z,99364.78
2022-09-29T00:52:11.112Z,99367.38
2022-09-29T00:57:13.179Z,99367.38
2022-09-29T01:02:15.470Z,99367.38
2022-09-29T01:07:17.175Z,99372.53
2022-09-29T01:12:18.813Z,99366.50
2022-09-29T01:17:20.870Z,99369.06
2022-09-29T01:22:48.214Z,99367.31
2022-09-29T01:28:26.604Z,99370.75
2022-09-29T01:33:36.604Z,99383.66
2022-09-29T01:39:03.253Z,99390.53
2022-09-29T01:44:19.611Z,99376.72
2022-09-29T01:49:21.766Z,99372.38
2022-09-29T01:54:47.690Z,99375.81
2022-09-29T01:59:55.186Z,99380.09
2022-09-29T02:04:58.843Z,99378.38
2022-09-29T02:10:37.369Z,99382.66
2022-09-29T02:15:39.751Z,99386.97
2022-09-29T02:20:41.390Z,99393.84
2022-09-29T02:25:43.083Z,99393.78
2022-09-29T02:30:44.791Z,99394.63
2022-09-29T02:36:04.263Z,99400.63
2022-09-29T02:41:21.610Z,99399.75
2022-09-29T02:46:37.537Z,99403.16
2022-09-29T02:51:41.188Z,99410.88
2022-09-29T02:56:51.783Z,99406.59
2022-09-29T03:01:55.487Z,99410.00
2022-09-29T03:06:57.357Z,99410.88
2022-09-29T03:11:59.081Z,99415.13
2022-09-29T03:17:00.781Z,99417.72
2022-09-29T03:22:03.623Z,99421.16
2022-09-29T03:27:05.907Z,99422.00
2022-09-29T03:32:07.673Z,99428.88
2022-09-29T03:37:09.377Z,99435.78
2022-09-29T03:42:11.026Z,99434.00
2022-09-29T03:47:12.673Z,99433.13
2022-09-29T03:52:14.333Z,99434.81
2022-09-29T03:57:16.055Z,99432.22
2022-09-29T04:02:20.926Z,99440.00
2022-09-29T04:07:22.920Z,99438.22
2022-09-29T04:12:24.675Z,99438.16
2022-09-29T04:17:26.557Z,99438.22
2022-09-29T04:22:28.290Z,99452.00
2022-09-29T04:27:29.943Z,99457.22
2022-09-29T04:32:31.632Z,99453.78
2022-09-29T04:37:33.435Z,99471.88
2022-09-29T04:42:35.304Z,99464.19
2022-09-29T04:47:37.025Z,99470.22
2022-09-29T04:52:38.673Z,99469.19
2022-09-29T04:57:41.441Z,99475.28
2022-09-29T05:02:45.586Z,99475.31
2022-09-29T05:07:50.628Z,99470.16
2022-09-29T05:12:52.384Z,99476.16
2022-09-29T05:17:54.084Z,99473.56
2022-09-29T05:22:57.953Z,99475.34
2022-09-29T05:27:59.675Z,99483.16
2022-09-29T05:33:01.318Z,99479.72
2022-09-29T05:38:03.028Z,99484.00
2022-09-29T05:43:05.649Z,99484.03
2022-09-29T05:48:07.313Z,99482.34
2022-09-29T05:53:09.512Z,99484.88
2022-09-29T05:58:11.705Z,99489.19
2022-09-29T06:03:13.358Z,99489.25
2022-09-29T06:08:15.056Z,99492.75
2022-09-29T06:13:16.739Z,99491.97
2022-09-29T06:18:18.417Z,99499.84
2022-09-29T06:23:20.201Z,99499.84
2022-09-29T06:28:22.028Z,99499.06
2022-09-29T06:33:23.691Z,99493.09
2022-09-29T06:38:25.398Z,99499.19
2022-09-29T06:43:27.084Z,99496.69
2022-09-29T06:48:29.809Z,99496.72
2022-09-29T06:53:38.064Z,99500.28
2022-09-29T06:58:40.865Z,99503.78
2022-09-29T07:03:42.505Z,99501.25
2022-09-29T07:08:44.204Z,99498.69
2022-09-29T07:13:45.904Z,99499.63
2022-09-29T07:18:51.048Z,99503.97
2022-09-29T07:23:52.729Z,99510.94
2022-09-29T07:28:54.404Z,99509.19
2022-09-29T07:33:56.399Z,99513.56
2022-09-29T07:38:58.159Z,99517.00
2022-09-29T07:44:00.179Z,99521.31
2022-09-29T07:49:01.865Z,99537.75
2022-09-29T07:54:04.261Z,99542.97
2022-09-29T07:59:05.996Z,99542.09
2022-09-29T08:04:07.695Z,99538.56
2022-09-29T08:09:09.554Z,99541.13
2022-09-29T08:14:13.952Z,99543.69
2022-09-29T08:19:15.631Z,99542.78
2022-09-29T08:24:17.833Z,99551.41
2022-09-29T08:29:19.563Z,99547.84
2022-09-29T08:34:21.384Z,99556.47
2022-09-29T08:39:23.252Z,99565.06
2022-09-29T08:44:39.220Z,99565.81
2022-09-29T08:49:50.938Z,99575.31
2022-09-29T08:55:22.748Z,99574.34
2022-09-29T09:00:38.781Z,99578.59
2022-09-29T09:06:11.621Z,99586.28
2022-09-29T09:11:29.565Z,99590.50
2022-09-29T09:16:53.204Z,99584.22
2022-09-29T09:22:03.072Z,99599.78
2022-09-29T09:27:04.887Z,99601.47
2022-09-29T09:32:09.330Z,99599.59
2022-09-29T09:37:14.814Z,99607.16
2022-09-29T09:42:21.594Z,99601.72
2022-09-29T09:47:27.477Z,99599.03
2022-09-29T09:52:33.940Z,99606.88
2022-09-29T09:57:41.275Z,99606.78
2022-09-29T10:02:46.620Z,99617.81
2022-09-29T10:07:51.192Z,99611.53
2022-09-29T10:13:04.432Z,99599.91
2022-09-29T10:18:36.386Z,99600.66
2022-09-29T10:23:38.609Z,99597.19
2022-09-29T10:29:01.055Z,99611.72
2022-09-29T10:34:13.725Z,99609.53
2022-09-29T10:39:35.028Z,99608.50
2022-09-29T10:44:39.225Z,99609.22
2022-09-29T10:49:41.139Z,99617.81
2022-09-29T10:54:59.171Z,99616.63
2022-09-29T11:00:00.940Z,99620.03
2022-09-29T11:05:04.651Z,99629.66
2022-09-29T11:10:32.374Z,99625.69
2022-09-29T11:15:40.632Z,99627.41
2022-09-29T11:20:42.707Z,99638.66
2022-09-29T11:26:12.090Z,99631.00
2022-09-29T11:31:26.288Z,99637.97
2022-09-29T11:36:51.895Z,99640.66
2022-09-29T11:42:22.152Z,99645.94
2022-09-29T11:47:38.178Z,99634.59
2022-09-29T11:52:58.495Z,99646.63
2022-09-29T11:58:43.393Z,99644.84
2022-09-29T12:04:09.786Z,99648.03
2022-09-29T12:09:33.636Z,99652.19
2022-09-29T12:14:54.118Z,99645.94
2022-09-29T12:20:02.215Z,99639.97
2022-09-29T12:25:04.246Z,99634.78
2022-09-29T12:30:23.068Z,99638.78
2022-09-29T12:35:39.084Z,99637.88
2022-09-29T12:41:01.019Z,99641.13
2022-09-29T12:46:09.635Z,99645.44
2022-09-29T12:51:28.631Z,99640.44
2022-09-29T12:57:04.055Z,99636.38
2022-09-29T13:02:28.067Z,99641.13
2022-09-29T13:08:04.623Z,99632.91
2022-09-29T13:13:23.373Z,99642.25
2022-09-29T13:19:20.288Z,99652.88
2022-09-29T13:24:59.909Z,99644.22
2022-09-29T13:30:17.893Z,99654.50
2022-09-29T13:35:23.980Z,99653.50
2022-09-29T13:40:27.378Z,99650.38
2022-09-29T13:45:31.604Z,99647.22
2022-09-29T13:50:48.710Z,99653.69
2022-09-29T13:56:02.687Z,99662.56
2022-09-29T14:01:08.490Z,99660.63
2022-09-29T14:06:40.166Z,99655.06
2022-09-29T14:11:49.197Z,99654.59
2022-09-29T14:17:11.800Z,99666.59
2022-09-29T14:22:31.860Z,99669.34
2022-09-29T14:27:50.666Z,99669.53
2022-09-29T14:32:56.412Z,99660.41
2022-09-29T14:38:15.843Z,99666.72
2022-09-29T14:43:17.816Z,99673.06
2022-09-29T14:48:46.709Z,99676.13
2022-09-29T14:53:58.479Z,99686.16
2022-09-29T14:59:35.536Z,99697.28
2022-09-29T15:04:38.992Z,99693.75
2022-09-29T15:09:47.304Z,99685.28
2022-09-29T15:14:50.205Z,99691.28
2022-09-29T15:20:08.915Z,99691.66
2022-09-29T15:25:24.047Z,99688.56
2022-09-29T15:30:26.700Z,99697.13
2022-09-29T15:35:29.136Z,99697.38
2022-09-29T15:40:30.828Z,99692.41
2022-09-29T15:45:32.662Z,99713.00
2022-09-29T15:50:41.195Z,99710.66
2022-09-29T15:55:42.908Z,99715.75
2022-09-29T16:00:44.969Z,99723.19
2022-09-29T16:05:56.815Z,99738.16
2022-09-29T16:11:04.919Z,99742.22
2022-09-29T16:16:08.178Z,99748.53
2022-09-29T16:21:20.896Z,99752.28
2022-09-29T16:26:31.588Z,99763.34
2022-09-29T16:31:33.508Z,99772.66
2022-09-29T16:36:36.766Z,99772.28
2022-09-29T16:41:39.155Z,99780.84
2022-09-29T16:46:46.985Z,99777.84
2022-09-29T16:51:49.814Z,99779.19
2022-09-29T16:57:12.675Z,99777.94
2022-09-29T17:02:14.392Z,99789.03
2022-09-29T17:07:16.900Z,99800.88
2022-09-29T17:12:18.703Z,99800.69
2022-09-29T17:17:23.099Z,99815.25
2022-09-29T17:22:33.888Z,99816.63
2022-09-29T17:27:54.137Z,99827.56
2022-09-29T17:32:58.005Z,99826.31
2022-09-29T17:37:59.667Z,99831.97
2022-09-29T17:43:01.813Z,99833.22
2022-09-29T17:48:04.876Z,99848.31
2022-09-29T17:53:06.951Z,99859.88
2022-09-29T17:58:10.472Z,99854.84
2022-09-29T18:03:12.697Z,99856.81
2022-09-29T18:08:15.844Z,99863.03
2022-09-29T18:13:17.499Z,99854.50
2022-09-29T18:18:20.668Z,99859.06
2022-09-29T18:23:25.189Z,99862.69
2022-09-29T18:28:27.464Z,99871.50
2022-09-29T18:33:29.181Z,99875.97
2022-09-29T18:38:30.881Z,99876.91
2022-09-29T18:43:32.541Z,99875.25
2022-09-29T18:48:34.212Z,99885.75
2022-09-29T18:53:35.938Z,99886.66
2022-09-29T18:58:38.256Z,99889.34
2022-09-29T19:03:40.655Z,99900.72
2022-09-29T19:08:44.365Z,99903.34
2022-09-29T19:13:46.177Z,99906.88
2022-09-29T19:18:49.372Z,99921.66
2022-09-29T19:23:51.123Z,99924.31
2022-09-29T19:28:52.841Z,99930.38
2022-09-29T19:33:55.384Z,99944.28
2022-09-29T19:38:57.068Z,99939.97
2022-09-29T19:43:59.836Z,99946.03
2022-09-29T19:49:01.488Z,99951.25
2022-09-29T19:54:20.298Z,99949.50
2022-09-29T19:59:26.816Z,99953.84
2022-09-29T20:04:31.995Z,99949.50
2022-09-29T20:09:33.981Z,99956.44
2022-09-29T20:14:37.780Z,99952.06
2022-09-29T20:19:39.418Z,99964.22
2022-09-29T20:24:41.113Z,99969.41
2022-09-29T20:29:42.754Z,99973.72
2022-09-29T20:34:44.732Z,99985.84
2022-09-29T20:39:49.120Z,99997.97
2022-09-29T20:44:55.139Z,100002.25
2022-09-29T20:49:56.884Z,100000.47
2022-09-29T20:55:00.805Z,100007.38
2022-09-29T21:00:02.689Z,100009.09
2022-09-29T21:05:04.889Z,100013.38
2022-09-29T21:10:07.129Z,100015.13
2022-09-29T21:15:09.042Z,100022.88
2022-09-29T21:20:10.897Z,100024.63
2022-09-29T21:25:12.560Z,100036.69
2022-09-29T21:30:14.244Z,100031.47
2022-09-29T21:35:15.915Z,100042.72
2022-09-29T21:40:17.564Z,100040.97
2022-09-29T21:45:19.210Z,100049.63
2022-09-29T21:50:20.877Z,100048.69
2022-09-29T21:55:22.590Z,100043.47
2022-09-29T22:00:25.183Z,100042.59
2022-09-29T22:05:27.390Z,100048.66
2022-09-29T22:10:29.218Z,100047.81
2022-09-29T22:15:32.851Z,100056.44
2022-09-29T22:20:37.892Z,100056.41
2022-09-29T22:25:44.163Z,100052.06
2022-09-29T22:30:45.801Z,100060.69
2022-09-29T22:35:48.096Z,100058.91
2022-09-29T22:40:50.072Z,100057.16
2022-09-29T22:45:51.866Z,100054.53
2022-09-29T22:50:53.895Z,100060.56
2022-09-29T22:55:55.516Z,100068.38
2022-09-29T23:01:04.214Z,100071.84
2022-09-29T23:06:06.310Z,100081.28
2022-09-29T23:11:08.297Z,100080.38
2022-09-29T23:16:12.801Z,100076.91
2022-09-29T23:21:19.873Z,100086.38
2022-09-29T23:26:22.254Z,100082.03
2022-09-29T23:31:24.202Z,100085.38
2022-09-29T23:36:27.390Z,100085.25
2022-09-29T23:41:30.130Z,100086.91
2022-09-29T23:46:33.591Z,100098.16
2022-09-29T23:51:36.600Z,100097.28
2022-09-29T23:56:38.262Z,100100.72
